sensor_id;sensor_type;location;lat;lon;timestamp;P1;durP1;ratioP1;P2;durP2;ratioP2
71183;SDS011;58887;51.980;4.464;2023-08-06T00:07:29;3.98;;;3.98;;
71183;SDS011;58887;51.980;4.464;2023-08-06T00:10:04;4.05;;;4.05;;
71183;SDS011;58887;51.980;4.464;2023-08-06T00:12:31;4.44;;;4.44;;
71183;SDS011;58887;51.980;4.464;2023-08-06T00:14:57;4.30;;;4.30;;
71183;SDS011;58887;51.980;4.464;2023-08-06T00:20:44;4.29;;;4.29;;
71183;SDS011;58887;51.980;4.464;2023-08-06T00:23:27;4.29;;;4.29;;
71183;SDS011;58887;51.980;4.464;2023-08-06T00:29:07;4.35;;;4.35;;
71183;SDS011;58887;51.980;4.464;2023-08-06T00:31:45;4.57;;;4.57;;
71183;SDS011;58887;51.980;4.464;2023-08-06T00:34:10;4.41;;;4.41;;
71183;SDS011;58887;51.980;4.464;2023-08-06T00:40:13;4.77;;;4.77;;
71183;SDS011;58887;51.980;4.464;2023-08-06T00:52:26;4.24;;;4.24;;
71183;SDS011;58887;51.980;4.464;2023-08-06T00:58:04;4.70;;;4.70;;
71183;SDS011;58887;51.980;4.464;2023-08-06T01:16:17;4.47;;;4.47;;
71183;SDS011;58887;51.980;4.464;2023-08-06T01:18:53;4.28;;;4.28;;
71183;SDS011;58887;51.980;4.464;2023-08-06T01:24:20;4.08;;;4.08;;
71183;SDS011;58887;51.980;4.464;2023-08-06T01:32:54;4.59;;;4.59;;
71183;SDS011;58887;51.980;4.464;2023-08-06T01:35:34;4.38;;;4.38;;
71183;SDS011;58887;51.980;4.464;2023-08-06T01:38:10;4.56;;;4.56;;
71183;SDS011;58887;51.980;4.464;2023-08-06T01:40:51;4.64;;;4.64;;
71183;SDS011;58887;51.980;4.464;2023-08-06T01:46:55;4.72;;;4.72;;
71183;SDS011;58887;51.980;4.464;2023-08-06T01:52:34;4.45;;;4.45;;
71183;SDS011;58887;51.980;4.464;2023-08-06T01:58:01;4.64;;;4.64;;
71183;SDS011;58887;51.980;4.464;2023-08-06T02:00:27;4.76;;;4.76;;
71183;SDS011;58887;51.980;4.464;2023-08-06T02:03:12;4.55;;;4.55;;
71183;SDS011;58887;51.980;4.464;2023-08-06T02:05:43;4.74;;;4.74;;
71183;SDS011;58887;51.980;4.464;2023-08-06T02:08:10;4.77;;;4.77;;
71183;SDS011;58887;51.980;4.464;2023-08-06T02:10:41;4.47;;;4.47;;
71183;SDS011;58887;51.980;4.464;2023-08-06T02:19:55;3.64;;;3.64;;
71183;SDS011;58887;51.980;4.464;2023-08-06T02:28:40;2.74;;;2.74;;
71183;SDS011;58887;51.980;4.464;2023-08-06T02:34:02;2.26;;;2.26;;
71183;SDS011;58887;51.980;4.464;2023-08-06T02:36:27;1.94;;;1.94;;
71183;SDS011;58887;51.980;4.464;2023-08-06T02:38:54;1.59;;;1.59;;
71183;SDS011;58887;51.980;4.464;2023-08-06T02:43:52;1.57;;;1.57;;
71183;SDS011;58887;51.980;4.464;2023-08-06T02:46:17;1.28;;;1.28;;
71183;SDS011;58887;51.980;4.464;2023-08-06T02:48:44;1.31;;;1.31;;
71183;SDS011;58887;51.980;4.464;2023-08-06T02:51:10;1.28;;;1.28;;
71183;SDS011;58887;51.980;4.464;2023-08-06T02:53:35;1.08;;;1.08;;
71183;SDS011;58887;51.980;4.464;2023-08-06T02:56:07;0.83;;;0.83;;
71183;SDS011;58887;51.980;4.464;2023-08-06T02:58:39;0.84;;;0.84;;
71183;SDS011;58887;51.980;4.464;2023-08-06T03:01:10;0.83;;;0.83;;
71183;SDS011;58887;51.980;4.464;2023-08-06T03:03:35;0.69;;;0.69;;
71183;SDS011;58887;51.980;4.464;2023-08-06T03:06:02;0.59;;;0.59;;
71183;SDS011;58887;51.980;4.464;2023-08-06T03:08:39;0.47;;;0.47;;
71183;SDS011;58887;51.980;4.464;2023-08-06T03:11:07;0.39;;;0.39;;
71183;SDS011;58887;51.980;4.464;2023-08-06T03:13:34;0.41;;;0.41;;
71183;SDS011;58887;51.980;4.464;2023-08-06T03:16:07;0.52;;;0.52;;
71183;SDS011;58887;51.980;4.464;2023-08-06T03:18:34;0.49;;;0.49;;
71183;SDS011;58887;51.980;4.464;2023-08-06T03:21:00;0.81;;;0.81;;
71183;SDS011;58887;51.980;4.464;2023-08-06T03:23:25;0.79;;;0.79;;
71183;SDS011;58887;51.980;4.464;2023-08-06T03:25:51;1.02;;;1.02;;
71183;SDS011;58887;51.980;4.464;2023-08-06T03:28:16;1.22;;;1.22;;
71183;SDS011;58887;51.980;4.464;2023-08-06T03:30:58;1.40;;;1.40;;
71183;SDS011;58887;51.980;4.464;2023-08-06T03:33:30;1.49;;;1.49;;
71183;SDS011;58887;51.980;4.464;2023-08-06T03:35:55;1.56;;;1.56;;
71183;SDS011;58887;51.980;4.464;2023-08-06T03:43:47;2.07;;;2.07;;
71183;SDS011;58887;51.980;4.464;2023-08-06T03:46:20;2.17;;;2.17;;
71183;SDS011;58887;51.980;4.464;2023-08-06T03:48:47;2.27;;;2.27;;
71183;SDS011;58887;51.980;4.464;2023-08-06T03:51:14;2.68;;;2.68;;
71183;SDS011;58887;51.980;4.464;2023-08-06T03:53:44;3.33;;;3.33;;
71183;SDS011;58887;51.980;4.464;2023-08-06T03:56:15;3.43;;;3.43;;
71183;SDS011;58887;51.980;4.464;2023-08-06T03:58:47;3.84;;;3.84;;
71183;SDS011;58887;51.980;4.464;2023-08-06T04:01:13;3.03;;;3.03;;
71183;SDS011;58887;51.980;4.464;2023-08-06T04:03:46;3.45;;;3.45;;
71183;SDS011;58887;51.980;4.464;2023-08-06T04:06:13;3.25;;;3.25;;
71183;SDS011;58887;51.980;4.464;2023-08-06T04:08:44;2.65;;;2.65;;
71183;SDS011;58887;51.980;4.464;2023-08-06T04:13:53;2.34;;;2.34;;
71183;SDS011;58887;51.980;4.464;2023-08-06T04:16:22;2.17;;;2.17;;
71183;SDS011;58887;51.980;4.464;2023-08-06T04:18:49;2.06;;;2.06;;
71183;SDS011;58887;51.980;4.464;2023-08-06T04:21:15;1.89;;;1.89;;
71183;SDS011;58887;51.980;4.464;2023-08-06T04:23:51;1.80;;;1.80;;
71183;SDS011;58887;51.980;4.464;2023-08-06T04:28:45;1.84;;;1.84;;
71183;SDS011;58887;51.980;4.464;2023-08-06T04:31:11;1.91;;;1.91;;
71183;SDS011;58887;51.980;4.464;2023-08-06T04:33:36;1.64;;;1.64;;
71183;SDS011;58887;51.980;4.464;2023-08-06T04:36:03;1.76;;;1.76;;
71183;SDS011;58887;51.980;4.464;2023-08-06T04:38:31;1.75;;;1.75;;
71183;SDS011;58887;51.980;4.464;2023-08-06T04:40:59;1.60;;;1.60;;
71183;SDS011;58887;51.980;4.464;2023-08-06T04:45:54;1.75;;;1.75;;
71183;SDS011;58887;51.980;4.464;2023-08-06T04:48:23;2.00;;;2.00;;
71183;SDS011;58887;51.980;4.464;2023-08-06T04:50:52;2.09;;;2.09;;
71183;SDS011;58887;51.980;4.464;2023-08-06T04:55:50;2.13;;;2.13;;
71183;SDS011;58887;51.980;4.464;2023-08-06T04:58:23;2.23;;;2.23;;
71183;SDS011;58887;51.980;4.464;2023-08-06T05:00:56;2.18;;;2.18;;
71183;SDS011;58887;51.980;4.464;2023-08-06T05:03:23;2.19;;;2.19;;
71183;SDS011;58887;51.980;4.464;2023-08-06T05:08:26;2.28;;;2.28;;
71183;SDS011;58887;51.980;4.464;2023-08-06T05:10:54;2.24;;;2.24;;
71183;SDS011;58887;51.980;4.464;2023-08-06T05:13:21;2.19;;;2.19;;
71183;SDS011;58887;51.980;4.464;2023-08-06T05:16:01;2.34;;;2.34;;
71183;SDS011;58887;51.980;4.464;2023-08-06T05:18:29;2.08;;;2.07;;
71183;SDS011;58887;51.980;4.464;2023-08-06T05:20:55;2.38;;;2.38;;
71183;SDS011;58887;51.980;4.464;2023-08-06T05:23:29;2.32;;;2.32;;
71183;SDS011;58887;51.980;4.464;2023-08-06T05:25:56;2.40;;;2.40;;
71183;SDS011;58887;51.980;4.464;2023-08-06T05:28:24;2.34;;;2.34;;
71183;SDS011;58887;51.980;4.464;2023-08-06T05:35:58;2.25;;;2.25;;
71183;SDS011;58887;51.980;4.464;2023-08-06T05:38:23;1.85;;;1.85;;
71183;SDS011;58887;51.980;4.464;2023-08-06T05:40:51;2.31;;;2.31;;
71183;SDS011;58887;51.980;4.464;2023-08-06T05:45:52;2.20;;;2.20;;
71183;SDS011;58887;51.980;4.464;2023-08-06T05:48:24;2.51;;;2.50;;
71183;SDS011;58887;51.980;4.464;2023-08-06T05:50:56;2.10;;;2.09;;
71183;SDS011;58887;51.980;4.464;2023-08-06T05:53:31;1.69;;;1.69;;
71183;SDS011;58887;51.980;4.464;2023-08-06T05:56:01;1.43;;;1.43;;
71183;SDS011;58887;51.980;4.464;2023-08-06T05:58:35;1.54;;;1.54;;
71183;SDS011;58887;51.980;4.464;2023-08-06T06:01:00;1.35;;;1.35;;
71183;SDS011;58887;51.980;4.464;2023-08-06T06:03:31;1.22;;;1.22;;
71183;SDS011;58887;51.980;4.464;2023-08-06T06:06:03;1.27;;;1.27;;
71183;SDS011;58887;51.980;4.464;2023-08-06T06:08:30;0.88;;;0.87;;
71183;SDS011;58887;51.980;4.464;2023-08-06T06:10:55;1.04;;;1.03;;
71183;SDS011;58887;51.980;4.464;2023-08-06T06:13:21;0.89;;;0.88;;
71183;SDS011;58887;51.980;4.464;2023-08-06T06:15:49;0.94;;;0.93;;
71183;SDS011;58887;51.980;4.464;2023-08-06T06:18:14;0.87;;;0.86;;
71183;SDS011;58887;51.980;4.464;2023-08-06T06:23:24;0.94;;;0.92;;
71183;SDS011;58887;51.980;4.464;2023-08-06T06:37:19;0.87;;;0.84;;
71183;SDS011;58887;51.980;4.464;2023-08-06T06:39:46;0.89;;;0.86;;
71183;SDS011;58887;51.980;4.464;2023-08-06T06:47:50;0.94;;;0.91;;
71183;SDS011;58887;51.980;4.464;2023-08-06T06:50:17;0.97;;;0.94;;
71183;SDS011;58887;51.980;4.464;2023-08-06T06:52:52;1.30;;;1.27;;
71183;SDS011;58887;51.980;4.464;2023-08-06T06:58:11;1.17;;;1.15;;
71183;SDS011;58887;51.980;4.464;2023-08-06T07:00:44;1.05;;;1.03;;
71183;SDS011;58887;51.980;4.464;2023-08-06T07:03:17;1.06;;;1.04;;
71183;SDS011;58887;51.980;4.464;2023-08-06T07:08:38;1.50;;;1.45;;
71183;SDS011;58887;51.980;4.464;2023-08-06T07:11:04;1.35;;;1.30;;
71183;SDS011;58887;51.980;4.464;2023-08-06T07:13:39;1.18;;;1.15;;
71183;SDS011;58887;51.980;4.464;2023-08-06T07:16:05;1.40;;;1.37;;
71183;SDS011;58887;51.980;4.464;2023-08-06T07:18:31;1.63;;;1.59;;
71183;SDS011;58887;51.980;4.464;2023-08-06T07:20:58;1.36;;;1.34;;
71183;SDS011;58887;51.980;4.464;2023-08-06T07:23:42;1.34;;;1.31;;
71183;SDS011;58887;51.980;4.464;2023-08-06T07:26:09;1.39;;;1.37;;
71183;SDS011;58887;51.980;4.464;2023-08-06T07:28:38;1.38;;;1.37;;
71183;SDS011;58887;51.980;4.464;2023-08-06T07:33:41;1.29;;;1.28;;
71183;SDS011;58887;51.980;4.464;2023-08-06T07:38:48;1.32;;;1.32;;
71183;SDS011;58887;51.980;4.464;2023-08-06T07:41:16;1.11;;;1.11;;
71183;SDS011;58887;51.980;4.464;2023-08-06T07:46:14;1.41;;;1.40;;
71183;SDS011;58887;51.980;4.464;2023-08-06T07:48:39;1.23;;;1.23;;
71183;SDS011;58887;51.980;4.464;2023-08-06T07:51:06;1.41;;;1.40;;
71183;SDS011;58887;51.980;4.464;2023-08-06T07:53:31;1.23;;;1.23;;
71183;SDS011;58887;51.980;4.464;2023-08-06T07:55:57;1.35;;;1.34;;
71183;SDS011;58887;51.980;4.464;2023-08-06T07:58:23;1.18;;;1.17;;
71183;SDS011;58887;51.980;4.464;2023-08-06T08:00:50;1.24;;;1.23;;
71183;SDS011;58887;51.980;4.464;2023-08-06T08:03:18;1.15;;;1.12;;
71183;SDS011;58887;51.980;4.464;2023-08-06T08:05:45;1.10;;;1.08;;
71183;SDS011;58887;51.980;4.464;2023-08-06T08:08:17;1.19;;;1.17;;
71183;SDS011;58887;51.980;4.464;2023-08-06T08:13:12;1.30;;;1.27;;
71183;SDS011;58887;51.980;4.464;2023-08-06T08:15:38;1.28;;;1.26;;
71183;SDS011;58887;51.980;4.464;2023-08-06T08:18:04;1.49;;;1.48;;
71183;SDS011;58887;51.980;4.464;2023-08-06T08:20:31;1.22;;;1.21;;
71183;SDS011;58887;51.980;4.464;2023-08-06T08:23:01;1.35;;;1.34;;
71183;SDS011;58887;51.980;4.464;2023-08-06T08:25:37;1.12;;;1.11;;
71183;SDS011;58887;51.980;4.464;2023-08-06T08:28:04;1.12;;;1.11;;
71183;SDS011;58887;51.980;4.464;2023-08-06T08:30:41;1.19;;;1.19;;
71183;SDS011;58887;51.980;4.464;2023-08-06T08:33:08;1.20;;;1.20;;
71183;SDS011;58887;51.980;4.464;2023-08-06T08:35:39;1.24;;;1.24;;
71183;SDS011;58887;51.980;4.464;2023-08-06T08:43:10;1.23;;;1.22;;
71183;SDS011;58887;51.980;4.464;2023-08-06T08:45:39;1.01;;;1.01;;
71183;SDS011;58887;51.980;4.464;2023-08-06T08:48:08;1.08;;;1.08;;
71183;SDS011;58887;51.980;4.464;2023-08-06T08:53:07;1.05;;;1.05;;
71183;SDS011;58887;51.980;4.464;2023-08-06T08:55:41;1.09;;;1.09;;
71183;SDS011;58887;51.980;4.464;2023-08-06T08:58:10;1.22;;;1.22;;
71183;SDS011;58887;51.980;4.464;2023-08-06T09:00:35;1.17;;;1.17;;
71183;SDS011;58887;51.980;4.464;2023-08-06T09:03:06;1.27;;;1.26;;
71183;SDS011;58887;51.980;4.464;2023-08-06T09:05:31;1.12;;;1.12;;
71183;SDS011;58887;51.980;4.464;2023-08-06T09:08:00;0.73;;;0.73;;
71183;SDS011;58887;51.980;4.464;2023-08-06T09:10:28;0.89;;;0.89;;
71183;SDS011;58887;51.980;4.464;2023-08-06T09:12:54;0.89;;;0.89;;
71183;SDS011;58887;51.980;4.464;2023-08-06T09:15:25;0.92;;;0.92;;
71183;SDS011;58887;51.980;4.464;2023-08-06T09:17:53;0.75;;;0.74;;
71183;SDS011;58887;51.980;4.464;2023-08-06T09:20:19;0.91;;;0.91;;
71183;SDS011;58887;51.980;4.464;2023-08-06T09:22:58;0.91;;;0.91;;
71183;SDS011;58887;51.980;4.464;2023-08-06T09:25:33;0.91;;;0.91;;
71183;SDS011;58887;51.980;4.464;2023-08-06T09:28:05;0.74;;;0.74;;
71183;SDS011;58887;51.980;4.464;2023-08-06T09:30:34;0.74;;;0.74;;
71183;SDS011;58887;51.980;4.464;2023-08-06T09:33:11;0.85;;;0.85;;
71183;SDS011;58887;51.980;4.464;2023-08-06T09:35:39;0.92;;;0.92;;
71183;SDS011;58887;51.980;4.464;2023-08-06T09:38:08;0.98;;;0.98;;
71183;SDS011;58887;51.980;4.464;2023-08-06T09:46:15;0.90;;;0.90;;
71183;SDS011;58887;51.980;4.464;2023-08-06T09:48:44;0.85;;;0.85;;
71183;SDS011;58887;51.980;4.464;2023-08-06T09:53:57;0.82;;;0.82;;
71183;SDS011;58887;51.980;4.464;2023-08-06T09:56:24;0.83;;;0.83;;
71183;SDS011;58887;51.980;4.464;2023-08-06T09:58:51;1.07;;;1.07;;
71183;SDS011;58887;51.980;4.464;2023-08-06T10:01:18;0.99;;;0.99;;
71183;SDS011;58887;51.980;4.464;2023-08-06T10:03:44;0.76;;;0.76;;
71183;SDS011;58887;51.980;4.464;2023-08-06T10:06:14;0.93;;;0.93;;
71183;SDS011;58887;51.980;4.464;2023-08-06T10:08:41;0.80;;;0.80;;
71183;SDS011;58887;51.980;4.464;2023-08-06T10:11:07;0.68;;;0.68;;
71183;SDS011;58887;51.980;4.464;2023-08-06T10:13:42;0.89;;;0.89;;
71183;SDS011;58887;51.980;4.464;2023-08-06T10:16:13;0.88;;;0.88;;
71183;SDS011;58887;51.980;4.464;2023-08-06T10:18:38;0.77;;;0.77;;
71183;SDS011;58887;51.980;4.464;2023-08-06T10:21:07;0.89;;;0.89;;
71183;SDS011;58887;51.980;4.464;2023-08-06T10:23:35;0.75;;;0.75;;
71183;SDS011;58887;51.980;4.464;2023-08-06T10:26:05;0.76;;;0.76;;
71183;SDS011;58887;51.980;4.464;2023-08-06T10:28:34;0.86;;;0.86;;
71183;SDS011;58887;51.980;4.464;2023-08-06T10:31:05;0.81;;;0.81;;
71183;SDS011;58887;51.980;4.464;2023-08-06T10:33:47;0.82;;;0.82;;
71183;SDS011;58887;51.980;4.464;2023-08-06T10:36:14;0.93;;;0.93;;
71183;SDS011;58887;51.980;4.464;2023-08-06T10:38:47;0.82;;;0.82;;
71183;SDS011;58887;51.980;4.464;2023-08-06T10:41:23;0.81;;;0.81;;
71183;SDS011;58887;51.980;4.464;2023-08-06T10:46:48;0.85;;;0.84;;
71183;SDS011;58887;51.980;4.464;2023-08-06T10:49:23;0.90;;;0.90;;
71183;SDS011;58887;51.980;4.464;2023-08-06T10:51:50;0.88;;;0.87;;
71183;SDS011;58887;51.980;4.464;2023-08-06T10:54:22;0.77;;;0.77;;
71183;SDS011;58887;51.980;4.464;2023-08-06T10:56:53;0.63;;;0.63;;
71183;SDS011;58887;51.980;4.464;2023-08-06T11:01:53;0.84;;;0.84;;
71183;SDS011;58887;51.980;4.464;2023-08-06T11:04:23;0.90;;;0.89;;
71183;SDS011;58887;51.980;4.464;2023-08-06T11:06:53;0.93;;;0.93;;
71183;SDS011;58887;51.980;4.464;2023-08-06T11:09:18;0.72;;;0.72;;
71183;SDS011;58887;51.980;4.464;2023-08-06T11:11:44;0.73;;;0.73;;
71183;SDS011;58887;51.980;4.464;2023-08-06T11:14:14;0.68;;;0.68;;
71183;SDS011;58887;51.980;4.464;2023-08-06T11:16:41;0.86;;;0.86;;
71183;SDS011;58887;51.980;4.464;2023-08-06T11:19:08;0.73;;;0.73;;
71183;SDS011;58887;51.980;4.464;2023-08-06T11:21:33;0.69;;;0.69;;
71183;SDS011;58887;51.980;4.464;2023-08-06T11:24:01;0.83;;;0.83;;
71183;SDS011;58887;51.980;4.464;2023-08-06T11:26:26;0.69;;;0.69;;
71183;SDS011;58887;51.980;4.464;2023-08-06T11:29:00;0.73;;;0.73;;
71183;SDS011;58887;51.980;4.464;2023-08-06T11:31:31;0.80;;;0.80;;
71183;SDS011;58887;51.980;4.464;2023-08-06T11:34:02;0.73;;;0.73;;
71183;SDS011;58887;51.980;4.464;2023-08-06T11:36:28;0.83;;;0.83;;
71183;SDS011;58887;51.980;4.464;2023-08-06T11:39:00;0.81;;;0.81;;
71183;SDS011;58887;51.980;4.464;2023-08-06T11:41:31;0.83;;;0.83;;
71183;SDS011;58887;51.980;4.464;2023-08-06T11:44:10;0.63;;;0.62;;
71183;SDS011;58887;51.980;4.464;2023-08-06T11:46:51;0.82;;;0.81;;
71183;SDS011;58887;51.980;4.464;2023-08-06T11:49:20;0.93;;;0.92;;
71183;SDS011;58887;51.980;4.464;2023-08-06T11:51:50;0.91;;;0.89;;
71183;SDS011;58887;51.980;4.464;2023-08-06T11:54:16;0.95;;;0.93;;
71183;SDS011;58887;51.980;4.464;2023-08-06T11:56:43;0.81;;;0.80;;
71183;SDS011;58887;51.980;4.464;2023-08-06T11:59:21;0.88;;;0.88;;
71183;SDS011;58887;51.980;4.464;2023-08-06T12:01:47;0.73;;;0.73;;
71183;SDS011;58887;51.980;4.464;2023-08-06T12:07:30;0.52;;;0.51;;
71183;SDS011;58887;51.980;4.464;2023-08-06T12:09:59;0.52;;;0.51;;
71183;SDS011;58887;51.980;4.464;2023-08-06T12:12:36;0.50;;;0.50;;
71183;SDS011;58887;51.980;4.464;2023-08-06T12:15:04;0.62;;;0.60;;
71183;SDS011;58887;51.980;4.464;2023-08-06T12:17:31;0.74;;;0.72;;
71183;SDS011;58887;51.980;4.464;2023-08-06T12:19:58;0.58;;;0.57;;
71183;SDS011;58887;51.980;4.464;2023-08-06T12:22:24;0.61;;;0.59;;
71183;SDS011;58887;51.980;4.464;2023-08-06T12:24:50;0.69;;;0.67;;
71183;SDS011;58887;51.980;4.464;2023-08-06T12:29:44;0.59;;;0.56;;
71183;SDS011;58887;51.980;4.464;2023-08-06T12:32:17;0.54;;;0.51;;
71183;SDS011;58887;51.980;4.464;2023-08-06T12:34:45;0.51;;;0.48;;
71183;SDS011;58887;51.980;4.464;2023-08-06T12:37:11;0.65;;;0.61;;
71183;SDS011;58887;51.980;4.464;2023-08-06T12:39:47;0.59;;;0.55;;
71183;SDS011;58887;51.980;4.464;2023-08-06T12:42:18;0.84;;;0.79;;
71183;SDS011;58887;51.980;4.464;2023-08-06T12:44:48;0.62;;;0.58;;
71183;SDS011;58887;51.980;4.464;2023-08-06T12:49:49;0.71;;;0.65;;
71183;SDS011;58887;51.980;4.464;2023-08-06T12:52:15;0.71;;;0.64;;
71183;SDS011;58887;51.980;4.464;2023-08-06T12:54:41;0.64;;;0.58;;
71183;SDS011;58887;51.980;4.464;2023-08-06T12:57:18;0.52;;;0.47;;
71183;SDS011;58887;51.980;4.464;2023-08-06T13:00:01;0.53;;;0.49;;
71183;SDS011;58887;51.980;4.464;2023-08-06T13:02:28;0.52;;;0.47;;
71183;SDS011;58887;51.980;4.464;2023-08-06T13:05:00;0.67;;;0.59;;
71183;SDS011;58887;51.980;4.464;2023-08-06T13:07:30;0.60;;;0.54;;
71183;SDS011;58887;51.980;4.464;2023-08-06T13:10:02;0.55;;;0.50;;
71183;SDS011;58887;51.980;4.464;2023-08-06T13:12:36;0.53;;;0.48;;
71183;SDS011;58887;51.980;4.464;2023-08-06T13:15:01;0.38;;;0.34;;
71183;SDS011;58887;51.980;4.464;2023-08-06T13:17:28;0.51;;;0.46;;
71183;SDS011;58887;51.980;4.464;2023-08-06T13:19:56;0.62;;;0.56;;
71183;SDS011;58887;51.980;4.464;2023-08-06T13:22:22;0.47;;;0.42;;
71183;SDS011;58887;51.980;4.464;2023-08-06T13:24:48;0.50;;;0.45;;
71183;SDS011;58887;51.980;4.464;2023-08-06T13:27:17;0.51;;;0.47;;
71183;SDS011;58887;51.980;4.464;2023-08-06T13:29:51;0.51;;;0.47;;
71183;SDS011;58887;51.980;4.464;2023-08-06T13:32:17;0.88;;;0.82;;
71183;SDS011;58887;51.980;4.464;2023-08-06T13:34:44;1.04;;;0.94;;
71183;SDS011;58887;51.980;4.464;2023-08-06T13:37:09;1.23;;;1.07;;
71183;SDS011;58887;51.980;4.464;2023-08-06T13:39:46;1.88;;;1.62;;
71183;SDS011;58887;51.980;4.464;2023-08-06T13:42:22;1.59;;;1.38;;
71183;SDS011;58887;51.980;4.464;2023-08-06T13:44:56;1.47;;;1.23;;
71183;SDS011;58887;51.980;4.464;2023-08-06T13:47:27;1.45;;;1.15;;
71183;SDS011;58887;51.980;4.464;2023-08-06T13:49:58;1.24;;;0.96;;
71183;SDS011;58887;51.980;4.464;2023-08-06T13:52:27;1.15;;;0.87;;
71183;SDS011;58887;51.980;4.464;2023-08-06T13:55:05;1.66;;;1.20;;
71183;SDS011;58887;51.980;4.464;2023-08-06T13:57:31;1.53;;;1.10;;
71183;SDS011;58887;51.980;4.464;2023-08-06T13:59:57;1.36;;;0.97;;
71183;SDS011;58887;51.980;4.464;2023-08-06T14:02:24;1.81;;;1.29;;
71183;SDS011;58887;51.980;4.464;2023-08-06T14:04:59;2.21;;;1.62;;
71183;SDS011;58887;51.980;4.464;2023-08-06T14:07:27;1.75;;;1.37;;
71183;SDS011;58887;51.980;4.464;2023-08-06T14:10:03;1.13;;;0.91;;
71183;SDS011;58887;51.980;4.464;2023-08-06T14:12:29;0.98;;;0.80;;
71183;SDS011;58887;51.980;4.464;2023-08-06T14:14:55;1.06;;;0.86;;
71183;SDS011;58887;51.980;4.464;2023-08-06T14:22:44;1.20;;;0.90;;
71183;SDS011;58887;51.980;4.464;2023-08-06T14:25:10;1.10;;;0.81;;
71183;SDS011;58887;51.980;4.464;2023-08-06T14:27:54;1.79;;;1.28;;
71183;SDS011;58887;51.980;4.464;2023-08-06T14:33:39;1.29;;;0.91;;
71183;SDS011;58887;51.980;4.464;2023-08-06T14:39:29;2.15;;;1.48;;
71183;SDS011;58887;51.980;4.464;2023-08-06T14:42:04;1.60;;;1.11;;
71183;SDS011;58887;51.980;4.464;2023-08-06T14:44:39;1.49;;;1.04;;
71183;SDS011;58887;51.980;4.464;2023-08-06T14:47:12;1.62;;;1.12;;
71183;SDS011;58887;51.980;4.464;2023-08-06T14:49:39;2.18;;;1.52;;
71183;SDS011;58887;51.980;4.464;2023-08-06T14:52:07;1.74;;;1.21;;
71183;SDS011;58887;51.980;4.464;2023-08-06T14:54:39;1.31;;;0.91;;
71183;SDS011;58887;51.980;4.464;2023-08-06T14:57:06;1.62;;;1.11;;
71183;SDS011;58887;51.980;4.464;2023-08-06T14:59:43;1.75;;;1.21;;
71183;SDS011;58887;51.980;4.464;2023-08-06T15:02:08;2.04;;;1.41;;
71183;SDS011;58887;51.980;4.464;2023-08-06T15:04:35;1.93;;;1.36;;
71183;SDS011;58887;51.980;4.464;2023-08-06T15:07:05;1.51;;;1.08;;
71183;SDS011;58887;51.980;4.464;2023-08-06T15:09:32;1.62;;;1.15;;
71183;SDS011;58887;51.980;4.464;2023-08-06T15:11:57;1.79;;;1.28;;
71183;SDS011;58887;51.980;4.464;2023-08-06T15:14:25;1.94;;;1.38;;
71183;SDS011;58887;51.980;4.464;2023-08-06T15:16:50;1.99;;;1.39;;
71183;SDS011;58887;51.980;4.464;2023-08-06T15:25:49;1.93;;;1.35;;
71183;SDS011;58887;51.980;4.464;2023-08-06T15:28:25;2.37;;;1.65;;
71183;SDS011;58887;51.980;4.464;2023-08-06T15:32:10;2.14;;;1.50;;
71183;SDS011;58887;51.980;4.464;2023-08-06T15:34:50;2.51;;;1.82;;
71183;SDS011;58887;51.980;4.464;2023-08-06T15:37:16;2.17;;;1.59;;
71183;SDS011;58887;51.980;4.464;2023-08-06T15:39:45;2.00;;;1.47;;
71183;SDS011;58887;51.980;4.464;2023-08-06T15:42:13;1.80;;;1.31;;
71183;SDS011;58887;51.980;4.464;2023-08-06T15:47:34;1.89;;;1.38;;
71183;SDS011;58887;51.980;4.464;2023-08-06T15:50:07;2.15;;;1.56;;
71183;SDS011;58887;51.980;4.464;2023-08-06T15:52:35;1.91;;;1.39;;
71183;SDS011;58887;51.980;4.464;2023-08-06T15:55:04;2.19;;;1.59;;
71183;SDS011;58887;51.980;4.464;2023-08-06T15:57:33;2.65;;;1.91;;
71183;SDS011;58887;51.980;4.464;2023-08-06T16:00:05;3.03;;;2.16;;
71183;SDS011;58887;51.980;4.464;2023-08-06T16:05:00;2.26;;;1.58;;
71183;SDS011;58887;51.980;4.464;2023-08-06T16:07:26;2.90;;;1.99;;
71183;SDS011;58887;51.980;4.464;2023-08-06T16:09:53;2.95;;;2.00;;
71183;SDS011;58887;51.980;4.464;2023-08-06T16:12:19;3.41;;;2.28;;
71183;SDS011;58887;51.980;4.464;2023-08-06T16:14:46;2.91;;;1.94;;
71183;SDS011;58887;51.980;4.464;2023-08-06T16:17:16;2.77;;;1.83;;
71183;SDS011;58887;51.980;4.464;2023-08-06T16:19:49;2.04;;;1.39;;
71183;SDS011;58887;51.980;4.464;2023-08-06T16:22:14;2.49;;;1.74;;
71183;SDS011;58887;51.980;4.464;2023-08-06T16:24:42;1.94;;;1.36;;
71183;SDS011;58887;51.980;4.464;2023-08-06T16:27:09;2.57;;;1.83;;
71183;SDS011;58887;51.980;4.464;2023-08-06T16:29:38;2.20;;;1.57;;
71183;SDS011;58887;51.980;4.464;2023-08-06T16:32:04;3.20;;;2.34;;
71183;SDS011;58887;51.980;4.464;2023-08-06T16:34:32;2.27;;;1.66;;
71183;SDS011;58887;51.980;4.464;2023-08-06T16:39:58;1.57;;;1.14;;
71183;SDS011;58887;51.980;4.464;2023-08-06T16:42:30;1.52;;;1.11;;
71183;SDS011;58887;51.980;4.464;2023-08-06T16:45:01;1.41;;;1.03;;
71183;SDS011;58887;51.980;4.464;2023-08-06T16:50:55;1.79;;;1.30;;
71183;SDS011;58887;51.980;4.464;2023-08-06T17:00:19;2.22;;;1.57;;
71183;SDS011;58887;51.980;4.464;2023-08-06T17:05:54;2.82;;;1.96;;
71183;SDS011;58887;51.980;4.464;2023-08-06T17:08:20;1.94;;;1.34;;
71183;SDS011;58887;51.980;4.464;2023-08-06T17:10:55;1.69;;;1.17;;
71183;SDS011;58887;51.980;4.464;2023-08-06T17:13:40;1.60;;;1.09;;
71183;SDS011;58887;51.980;4.464;2023-08-06T17:16:06;2.36;;;1.59;;
71183;SDS011;58887;51.980;4.464;2023-08-06T17:18:32;2.20;;;1.46;;
71183;SDS011;58887;51.980;4.464;2023-08-06T17:21:00;1.90;;;1.27;;
71183;SDS011;58887;51.980;4.464;2023-08-06T17:26:14;1.65;;;1.10;;
71183;SDS011;58887;51.980;4.464;2023-08-06T17:28:39;3.06;;;2.06;;
71183;SDS011;58887;51.980;4.464;2023-08-06T17:31:06;2.18;;;1.47;;
71183;SDS011;58887;51.980;4.464;2023-08-06T17:33:39;2.29;;;1.52;;
71183;SDS011;58887;51.980;4.464;2023-08-06T17:36:04;2.35;;;1.53;;
71183;SDS011;58887;51.980;4.464;2023-08-06T17:38:36;2.95;;;1.89;;
71183;SDS011;58887;51.980;4.464;2023-08-06T17:41:03;2.41;;;1.54;;
71183;SDS011;58887;51.980;4.464;2023-08-06T17:43:31;2.63;;;1.69;;
71183;SDS011;58887;51.980;4.464;2023-08-06T17:46:04;2.29;;;1.49;;
71183;SDS011;58887;51.980;4.464;2023-08-06T17:48:31;3.11;;;2.00;;
71183;SDS011;58887;51.980;4.464;2023-08-06T17:50:58;2.43;;;1.57;;
71183;SDS011;58887;51.980;4.464;2023-08-06T17:53:23;2.57;;;1.69;;
71183;SDS011;58887;51.980;4.464;2023-08-06T17:58:40;2.78;;;1.84;;
71183;SDS011;58887;51.980;4.464;2023-08-06T18:03:44;1.49;;;1.02;;
71183;SDS011;58887;51.980;4.464;2023-08-06T18:06:12;1.77;;;1.21;;
71183;SDS011;58887;51.980;4.464;2023-08-06T18:08:37;2.40;;;1.62;;
71183;SDS011;58887;51.980;4.464;2023-08-06T18:11:03;1.87;;;1.26;;
71183;SDS011;58887;51.980;4.464;2023-08-06T18:13:29;2.78;;;1.87;;
71183;SDS011;58887;51.980;4.464;2023-08-06T18:18:34;2.81;;;1.91;;
71183;SDS011;58887;51.980;4.464;2023-08-06T18:21:12;2.42;;;1.65;;
71183;SDS011;58887;51.980;4.464;2023-08-06T18:29:08;2.38;;;1.58;;
71183;SDS011;58887;51.980;4.464;2023-08-06T18:31:36;2.45;;;1.65;;
71183;SDS011;58887;51.980;4.464;2023-08-06T18:34:15;3.00;;;2.02;;
71183;SDS011;58887;51.980;4.464;2023-08-06T18:40:09;2.92;;;1.97;;
71183;SDS011;58887;51.980;4.464;2023-08-06T18:43:09;3.73;;;2.52;;
71183;SDS011;58887;51.980;4.464;2023-08-06T18:46:29;3.40;;;2.28;;
71183;SDS011;58887;51.980;4.464;2023-08-06T18:49:04;3.21;;;2.12;;
71183;SDS011;58887;51.980;4.464;2023-08-06T18:51:35;4.23;;;2.81;;
71183;SDS011;58887;51.980;4.464;2023-08-06T18:54:40;3.10;;;2.17;;
71183;SDS011;58887;51.980;4.464;2023-08-06T18:57:11;2.79;;;1.95;;